Time,TemperatureF,DewpointF,PressureIn,WindDirection,WindDirectionDegrees,WindSpeedMPH,WindSpeedGustMPH,Humidity,HourlyPrecipIn,Conditions,Clouds,dailyrainin,SoftwareType,DateUTC
2013-01-30 00:11:00,67.4,67.0,29.81,SSW,204,9.0,17.0,100,0.00,,,0.09,weatherlink.com 1.10,2013-01-30 06:11:00,
2013-01-30 00:26:00,67.5,68.0,29.79,South,190,13.0,17.0,100,0.00,,,0.09,weatherlink.com 1.10,2013-01-30 06:26:00,
2013-01-30 00:41:00,67.6,68.0,29.79,SW,218,12.0,18.0,100,0.00,,,0.09,weatherlink.com 1.10,2013-01-30 06:41:00,
2013-01-30 00:56:00,67.4,67.0,29.79,SSW,203,12.0,17.0,100,0.00,,,0.09,weatherlink.com 1.10,2013-01-30 06:56:00,
2013-01-30 01:11:00,67.6,68.0,29.78,SSW,192,14.0,19.0,100,0.00,,,0.09,weatherlink.com 1.10,2013-01-30 07:11:00,
2013-01-30 01:26:00,67.4,67.0,29.78,SSW,207,17.0,20.0,100,0.00,,,0.09,weatherlink.com 1.10,2013-01-30 07:26:00,
2013-01-30 01:41:00,67.6,68.0,29.76,SSW,202,22.0,23.0,100,0.00,,,0.09,weatherlink.com 1.10,2013-01-30 07:41:00,
2013-01-30 01:56:00,67.6,68.0,29.76,SW,215,13.0,18.0,100,0.00,,,0.09,weatherlink.com 1.10,2013-01-30 07:56:00,
2013-01-30 02:11:00,67.4,67.0,29.76,SSW,196,18.0,22.0,100,0.00,,,0.09,weatherlink.com 1.10,2013-01-30 08:11:00,
2013-01-30 02:26:00,67.5,68.0,29.75,SW,217,12.0,19.0,100,0.00,,,0.09,weatherlink.com 1.10,2013-01-30 08:26:00,
2013-01-30 02:41:00,67.4,67.0,29.74,SSW,207,14.0,20.0,100,0.00,,,0.09,weatherlink.com 1.10,2013-01-30 08:41:00,
2013-01-30 02:57:00,67.3,67.0,29.73,SW,220,13.0,21.0,100,0.00,,,0.09,weatherlink.com 1.10,2013-01-30 08:57:00,
2013-01-30 03:12:00,67.3,67.0,29.73,SW,223,10.0,23.0,100,0.00,,,0.09,weatherlink.com 1.10,2013-01-30 09:12:00,
2013-01-30 03:27:00,67.3,67.0,29.73,SW,217,13.0,18.0,100,0.00,,,0.09,weatherlink.com 1.10,2013-01-30 09:27:00,
2013-01-30 03:42:00,67.3,67.0,29.73,SW,217,9.0,21.0,100,0.00,,,0.09,weatherlink.com 1.10,2013-01-30 09:42:00,
2013-01-30 03:57:00,67.4,67.0,29.72,SSW,211,12.0,16.0,99,0.00,,,0.09,weatherlink.com 1.10,2013-01-30 09:57:00,
2013-01-30 04:12:00,67.3,67.0,29.72,SW,221,12.0,16.0,99,0.00,,,0.09,weatherlink.com 1.10,2013-01-30 10:12:00,
2013-01-30 04:27:00,67.4,67.0,29.71,SW,232,10.0,21.0,99,0.00,,,0.09,weatherlink.com 1.10,2013-01-30 10:27:00,
2013-01-30 04:42:00,67.4,67.0,29.70,SSW,213,14.0,17.0,99,0.00,,,0.09,weatherlink.com 1.10,2013-01-30 10:42:00,
2013-01-30 04:57:00,67.5,67.0,29.70,SW,216,19.0,19.0,99,0.00,,,0.09,weatherlink.com 1.10,2013-01-30 10:57:00,
2013-01-30 05:12:00,67.2,67.0,29.70,SW,226,14.0,20.0,99,0.00,,,0.09,weatherlink.com 1.10,2013-01-30 11:12:00,
2013-01-30 05:27:00,67.1,67.0,29.69,SW,233,19.0,22.0,99,0.00,,,0.09,weatherlink.com 1.10,2013-01-30 11:27:00,
2013-01-30 05:42:00,67.4,67.0,29.68,SSW,213,19.0,22.0,99,0.00,,,0.09,weatherlink.com 1.10,2013-01-30 11:42:00,
2013-01-30 05:57:00,67.3,67.0,29.67,SW,215,17.0,22.0,99,0.00,,,0.09,weatherlink.com 1.10,2013-01-30 11:57:00,
2013-01-30 06:12:00,67.5,67.0,29.67,SW,217,19.0,26.0,99,0.00,,,0.00,weatherlink.com 1.10,2013-01-30 12:12:00,
2013-01-30 06:27:00,67.4,67.0,29.67,SW,227,18.0,26.0,99,0.00,,,0.00,weatherlink.com 1.10,2013-01-30 12:27:00,
2013-01-30 06:42:00,67.4,67.0,29.68,SW,221,22.0,26.0,99,0.00,,,0.00,weatherlink.com 1.10,2013-01-30 12:42:00,
2013-01-30 06:57:00,67.5,67.0,29.69,SSW,211,17.0,25.0,99,0.00,,,0.00,weatherlink.com 1.10,2013-01-30 12:57:00,
2013-01-30 07:12:00,67.7,67.0,29.68,SSW,200,14.0,26.0,99,0.00,,,0.00,weatherlink.com 1.10,2013-01-30 13:12:00,
2013-01-30 07:27:00,67.6,67.0,29.69,SW,225,18.0,24.0,99,0.00,,,0.00,weatherlink.com 1.10,2013-01-30 13:27:00,
2013-01-30 07:42:00,67.6,67.0,29.68,SW,215,18.0,23.0,99,0.00,,,0.00,weatherlink.com 1.10,2013-01-30 13:42:00,
2013-01-30 07:57:00,67.9,67.0,29.68,SSW,198,17.0,26.0,98,0.00,,,0.00,weatherlink.com 1.10,2013-01-30 13:57:00,
2013-01-30 08:12:00,67.9,67.0,29.67,SSW,212,24.0,28.0,98,0.00,,,0.00,weatherlink.com 1.10,2013-01-30 14:12:00,
2013-01-30 08:27:00,68.0,68.0,29.68,SW,218,18.0,29.0,98,0.00,,,0.00,weatherlink.com 1.10,2013-01-30 14:27:00,
2013-01-30 08:42:00,68.3,68.0,29.68,SW,215,23.0,30.0,97,0.00,,,0.00,weatherlink.com 1.10,2013-01-30 14:42:00,
2013-01-30 08:57:00,68.6,68.0,29.68,SW,223,21.0,31.0,97,0.00,,,0.00,weatherlink.com 1.10,2013-01-30 14:57:00,
2013-01-30 09:12:00,66.3,65.0,29.69,WNW,298,8.0,30.0,94,0.06,,,0.06,weatherlink.com 1.10,2013-01-30 15:12:00,
2013-01-30 09:27:00,62.1,61.0,29.71,WNW,302,12.0,28.0,96,0.12,,,0.12,weatherlink.com 1.10,2013-01-30 15:27:00,
2013-01-30 09:42:00,59.9,59.0,29.75,West,269,7.0,27.0,97,0.30,,,0.30,weatherlink.com 1.10,2013-01-30 15:42:00,
2013-01-30 09:57:00,58.5,57.0,29.74,NW,319,5.0,25.0,96,0.47,,,0.47,weatherlink.com 1.10,2013-01-30 15:57:00,
2013-01-30 10:12:00,56.3,55.0,29.75,NNW,333,21.0,25.0,95,0.48,,,0.56,weatherlink.com 1.10,2013-01-30 16:12:00,
2013-01-30 10:27:00,54.3,53.0,29.75,NNW,337,6.0,21.0,94,0.48,,,0.60,weatherlink.com 1.10,2013-01-30 16:27:00,
2013-01-30 10:42:00,54.4,53.0,29.75,NNW,333,12.0,15.0,94,0.30,,,0.60,weatherlink.com 1.10,2013-01-30 16:42:00,
2013-01-30 10:58:00,54.6,53.0,29.76,NNW,331,4.0,10.0,94,0.14,,,0.61,weatherlink.com 1.10,2013-01-30 16:58:00,
2013-01-30 11:13:00,54.5,53.0,29.76,NNW,333,6.0,16.0,94,0.08,,,0.64,weatherlink.com 1.10,2013-01-30 17:13:00,
2013-01-30 11:28:00,54.6,53.0,29.77,WNW,298,1.0,9.0,94,0.06,,,0.66,weatherlink.com 1.10,2013-01-30 17:28:00,
2013-01-30 11:43:00,54.9,53.0,29.77,NW,322,4.0,7.0,94,0.06,,,0.66,weatherlink.com 1.10,2013-01-30 17:43:00,
2013-01-30 11:58:00,55.3,53.0,29.76,WNW,288,0.0,6.0,93,0.05,,,0.66,weatherlink.com 1.10,2013-01-30 17:58:00,
2013-01-30 12:13:00,55.3,53.0,29.76,NW,319,5.0,10.0,93,0.04,,,0.68,weatherlink.com 1.10,2013-01-30 18:13:00,
2013-01-30 12:28:00,55.4,54.0,29.75,WNW,298,2.0,7.0,93,0.02,,,0.68,weatherlink.com 1.10,2013-01-30 18:28:00,
2013-01-30 12:43:00,55.7,54.0,29.77,WSW,238,7.0,11.0,93,0.02,,,0.68,weatherlink.com 1.10,2013-01-30 18:43:00,
2013-01-30 12:58:00,56.6,54.0,29.78,WNW,283,6.0,15.0,91,0.02,,,0.68,weatherlink.com 1.10,2013-01-30 18:58:00,
2013-01-30 13:28:00,56.9,53.0,29.75,SW,222,6.0,14.0,88,0.01,,,0.69,weatherlink.com 1.10,2013-01-30 19:28:00,
2013-01-30 13:43:00,57.0,53.0,29.78,NW,308,12.0,14.0,86,0.01,,,0.69,weatherlink.com 1.10,2013-01-30 19:43:00,
2013-01-30 13:58:00,57.2,53.0,29.78,WNW,294,4.0,13.0,87,0.01,,,0.69,weatherlink.com 1.10,2013-01-30 19:58:00,
2013-01-30 14:13:00,57.2,53.0,29.77,NNW,342,10.0,15.0,86,0.01,,,0.70,weatherlink.com 1.10,2013-01-30 20:13:00,
2013-01-30 14:28:00,57.3,52.0,29.77,West,275,7.0,15.0,83,0.01,,,0.70,weatherlink.com 1.10,2013-01-30 20:28:00,
2013-01-30 14:43:00,57.6,52.0,29.77,NW,319,8.0,13.0,80,0.01,,,0.70,weatherlink.com 1.10,2013-01-30 20:43:00,
2013-01-30 14:58:00,58.0,51.0,29.77,NW,310,7.0,15.0,78,0.01,,,0.70,weatherlink.com 1.10,2013-01-30 20:58:00,
2013-01-30 15:28:00,58.4,49.0,29.79,NNW,338,8.0,13.0,72,0.00,,,0.70,weatherlink.com 1.10,2013-01-30 21:28:00,
2013-01-30 15:43:00,58.6,48.0,29.80,NW,324,4.0,14.0,69,0.00,,,0.70,weatherlink.com 1.10,2013-01-30 21:43:00,
2013-01-30 15:58:00,58.6,47.0,29.80,WSW,249,9.0,17.0,65,0.00,,,0.70,weatherlink.com 1.10,2013-01-30 21:58:00,
2013-01-30 16:13:00,58.5,45.0,29.81,NW,313,8.0,12.0,62,0.00,,,0.70,weatherlink.com 1.10,2013-01-30 22:13:00,
2013-01-30 16:28:00,58.4,43.0,29.82,SSW,204,7.0,18.0,56,0.00,,,0.70,weatherlink.com 1.10,2013-01-30 22:28:00,
2013-01-30 16:43:00,58.7,41.0,29.82,WNW,296,7.0,18.0,53,0.00,,,0.70,weatherlink.com 1.10,2013-01-30 22:43:00,
2013-01-30 16:58:00,58.4,41.0,29.83,WNW,295,8.0,17.0,52,0.00,,,0.70,weatherlink.com 1.10,2013-01-30 22:58:00,
2013-01-30 17:13:00,58.2,40.0,29.84,North,5,10.0,14.0,52,0.00,,,0.70,weatherlink.com 1.10,2013-01-30 23:13:00,
2013-01-30 17:28:00,57.8,39.0,29.85,WNW,290,16.0,27.0,49,0.00,,,0.70,weatherlink.com 1.10,2013-01-30 23:28:00,
2013-01-30 17:43:00,57.3,40.0,29.86,WNW,288,12.0,23.0,52,0.00,,,0.70,weatherlink.com 1.10,2013-01-30 23:43:00,
2013-01-30 17:58:00,56.8,39.0,29.88,WNW,300,7.0,19.0,52,0.00,,,0.70,weatherlink.com 1.10,2013-01-30 23:58:00,
2013-01-30 18:13:00,56.6,39.0,29.89,NNW,331,4.0,18.0,52,0.00,,,0.70,weatherlink.com 1.10,2013-01-31 00:13:00,
2013-01-30 18:28:00,56.2,39.0,29.90,NW,310,11.0,24.0,53,0.00,,,0.70,weatherlink.com 1.10,2013-01-31 00:28:00,
2013-01-30 18:43:00,55.8,40.0,29.91,NW,309,13.0,22.0,56,0.00,,,0.70,weatherlink.com 1.10,2013-01-31 00:43:00,
2013-01-30 18:58:00,55.3,39.0,29.93,NNW,331,13.0,30.0,55,0.00,,,0.70,weatherlink.com 1.10,2013-01-31 00:58:00,
2013-01-30 19:13:00,54.8,38.0,29.94,North,360,26.0,32.0,54,0.00,,,0.70,weatherlink.com 1.10,2013-01-31 01:13:00,
2013-01-30 19:29:00,54.2,39.0,29.96,NNW,348,14.0,24.0,58,0.00,,,0.70,weatherlink.com 1.10,2013-01-31 01:29:00,
2013-01-30 19:44:00,53.5,38.0,29.97,NNW,329,22.0,31.0,56,0.00,,,0.70,weatherlink.com 1.10,2013-01-31 01:44:00,
2013-01-30 19:59:00,52.8,37.0,29.99,NNW,336,16.0,38.0,56,0.00,,,0.70,weatherlink.com 1.10,2013-01-31 01:59:00,
2013-01-30 20:14:00,52.1,38.0,30.00,NW,321,13.0,28.0,59,0.00,,,0.70,weatherlink.com 1.10,2013-01-31 02:14:00,
2013-01-30 20:29:00,51.4,38.0,30.01,North,355,20.0,27.0,60,0.00,,,0.70,weatherlink.com 1.10,2013-01-31 02:29:00,
2013-01-30 20:44:00,50.5,34.0,30.02,NNW,332,18.0,39.0,54,0.00,,,0.70,weatherlink.com 1.10,2013-01-31 02:44:00,
2013-01-30 20:59:00,49.9,35.0,30.03,NNW,339,16.0,34.0,56,0.01,,,0.71,weatherlink.com 1.10,2013-01-31 02:59:00,
2013-01-30 21:14:00,48.9,34.0,30.04,North,360,15.0,23.0,58,0.01,,,0.71,weatherlink.com 1.10,2013-01-31 03:14:00,
2013-01-30 21:30:00,48.1,33.0,30.05,North,355,10.0,29.0,57,0.01,,,0.71,weatherlink.com 1.10,2013-01-31 03:30:00,
2013-01-30 21:44:00,47.5,33.0,30.07,North,360,9.0,25.0,58,0.01,,,0.71,weatherlink.com 1.10,2013-01-31 03:44:00,
2013-01-30 21:59:00,47.1,33.0,30.07,North,360,12.0,25.0,58,0.00,,,0.71,weatherlink.com 1.10,2013-01-31 03:59:00,
2013-01-30 22:14:00,46.7,33.0,30.09,North,360,9.0,18.0,59,0.00,,,0.71,weatherlink.com 1.10,2013-01-31 04:14:00,
2013-01-30 22:29:00,46.4,33.0,30.10,North,11,3.0,14.0,61,0.00,,,0.71,weatherlink.com 1.10,2013-01-31 04:29:00,
2013-01-30 22:44:00,46.1,34.0,30.11,North,351,5.0,14.0,63,0.00,,,0.71,weatherlink.com 1.10,2013-01-31 04:44:00,
2013-01-30 22:59:00,45.9,34.0,30.11,North,350,12.0,17.0,64,0.00,,,0.71,weatherlink.com 1.10,2013-01-31 04:59:00,
2013-01-30 23:14:00,45.8,34.0,30.12,North,355,9.0,14.0,64,0.00,,,0.71,weatherlink.com 1.10,2013-01-31 05:14:00,
2013-01-30 23:29:00,45.6,34.0,30.12,North,5,9.0,22.0,64,0.00,,,0.71,weatherlink.com 1.10,2013-01-31 05:29:00,
2013-01-30 23:44:00,45.5,34.0,30.12,North,5,10.0,16.0,64,0.00,,,0.71,weatherlink.com 1.10,2013-01-31 05:44:00,
2013-01-30 23:59:00,45.4,33.0,30.13,North,355,11.0,21.0,63,0.00,,,0.71,weatherlink.com 1.10,2013-01-31 05:59:00,